Tiempo atmosférico en la estación meteorológica de Pontons, Barcelona (630 m.)



Fecha
DESCASC
Temp. máxima en grados centígrados (hora)
DESCASC
Temp. mínima en grados centígrados (hora)
DESCASC
Temp. media en grados centígrados
DESCASC
Racha de viento máxima en m/sg (hora)
DESCASC
Velocidad máxima media en intervalos de 10 minutos(hora)
DESCASC
Precipitaciones diarias en mm
DESCASC
Precipitaciones de 00:00 a 06:00 en mm
DESCASC
Precipitaciones de 06:00 a 12:00 en mm
DESCASC
Precipitaciones de 12:00 a 18:00 en mm
DESCASC
Precipitaciones de 18:00 a 24:00 en mm
DESCASC
25-04-2019 15.1 (17:20) 9.4 (23:40) 12.3 12.22 (21:20) 7.5 (21:00) 1.8 0 0 1.8 0
24-04-2019 13.8 (12:50) 7.1 (04:20) 10.5 11.67 (18:30) 7.22 (18:00) 0 0 0 0 0
23-04-2019 18.6 (16:20) 9.5 (07:10) 14.1 8.89 (16:20) 5.56 (14:10) 0.4 0 0.4 0 0
22-04-2019 14.5 (11:50) 10.1 (00:00) 12.3 12.22 (08:00) 7.5 (04:50) 0 0 0 0 0
21-04-2019 14.6 (16:50) 7.4 (00:00) 11 15.83 (11:40) 9.44 (10:50) 0.2 0.2 0 0 0
20-04-2019 14.2 (15:10) 7.5 (00:00) 10.8 17.78 (13:50) 11.11 (13:00) 11.4 0 0 1 10.4
19-04-2019 16.8 (17:30) 10.5 (00:00) 13.6 20 (17:20) 13.33 (12:30) 0 0 0 0 0
18-04-2019 16.5 (15:40) 8.2 (00:00) 12.3 18.89 (15:20) 12.22 (15:20) 0 0 0 0 0
17-04-2019 16.4 (16:20) 3.7 (00:00) 10 7.78 (14:20) 4.72 (16:50) 0 0 0 0 0
16-04-2019 16.8 (16:30) 4.8 (00:00) 10.8 8.33 (18:00) 4.44 (16:40) 0.4 0.4 0 0 0
15-04-2019 14.1 (13:40) 4.1 (00:00) 9.1 9.17 (15:50) 5.56 (15:50) 0 0 0 0 0
14-04-2019 19.7 (14:20) 6.1 (00:00) 12.9 13.33 (13:30) 8.61 (13:30) 0 0 0 0 0
13-04-2019 21 (16:40) 2.7 (00:00) 11.9 8.61 (17:10) 5.83 (17:20) 0 0 0 0 0
12-04-2019 19 (18:00) 5.8 (00:00) 12.4 12.5 (13:10) 8.33 (13:10) 0 0 0 0 0
11-04-2019 17.6 (16:10) 5.3 (00:00) 11.5 11.67 (17:30) 6.94 (18:30) 0 0 0 0 0
10-04-2019 15.3 (14:00) 5.5 (00:00) 10.4 8.89 (07:20) 4.72 (15:20) 0.2 0.2 0 0 0
09-04-2019 15.8 (15:10) 5.4 (00:00) 10.6 13.61 (11:50) 8.89 (11:30) 1.2 0 0 0 1.2
08-04-2019 16.5 (16:50) 1.9 (00:00) 9.2 12.5 (14:30) 8.33 (14:30) 0 0 0 0 0
07-04-2019 14.9 (17:00) 3 (00:00) 8.9 15.28 (10:50) 9.44 (12:20) 0 0 0 0 0
06-04-2019 -- (--) -- (--) -- -- (--) -- (--) -- 6 0 0 --
05-04-2019 13.1 (15:00) 3.4 (00:00) 8.3 10.28 (22:40) 6.67 (22:40) 4.2 0 1 0 3.2
04-04-2019 12.4 (17:10) 0.6 (00:00) 6.5 16.94 (09:50) 13.06 (09:40) 0 0 0 0 0
03-04-2019 13.3 (15:00) 4.6 (00:00) 9 14.44 (22:50) 10.28 (22:50) 1 0 0 0 1
02-04-2019 18.2 (15:20) 6.8 (00:00) 12.5 10 (16:40) 6.11 (17:20) 0 0 0 0 0
01-04-2019 18.3 (15:10) 6.2 (00:00) 12.2 8.89 (16:20) 5.28 (15:40) 0 0 0 0 0
31-03-2019 13.9 (15:20) 1.2 (00:00) 7.5 8.33 (12:40) 5.56 (12:40) 0 0 0 0 0
30-03-2019 14.3 (14:50) 0.2 (00:00) 7.3 8.33 (15:00) 4.44 (16:30) 0 0 0 0 0
29-03-2019 15 (15:50) 1.1 (00:00) 8.1 8.61 (14:40) 5 (14:40) 0 0 0 0 0
28-03-2019 16.3 (13:30) -0.1 (00:00) 8.1 8.89 (15:00) 5.56 (15:30) 0 0 0 0 0
27-03-2019 17 (14:00) -0.2 (00:00) 8.4 9.17 (15:00) 5.28 (15:00) 0 0 0 0 0

Gráficas

Temp. máximas Temp. mínimas Temp. medias Precipitaciones Rachas de viento máximas Velocidades máximas media en intervalos de 10 minutos

Datos horarios

Fecha y hora oficial Temperatura (ºC) Velocidad del viento (km/h) Dirección del viento Racha (km/h) Dirección de racha Precipitación (mm) Presión (hPa) Tendencia (hPa) Humedad (%)
2019-04-25 23:00:00 10.1 20 Oeste 32 Oeste 0 -- -- 53
2019-04-25 22:00:00 10.6 14 Oeste 44 Oeste 0 -- -- 50
2019-04-25 21:00:00 11.1 27 Noroeste 43 Noroeste 0 -- -- 56
2019-04-25 20:00:00 12.3 17 Noroeste 31 Oeste 0 -- -- 58
2019-04-25 19:00:00 14.8 16 Oeste 27 Oeste 0 -- -- 65
2019-04-25 18:00:00 12.5 14 Sur 30 Sur 0.4 -- -- 79
2019-04-25 17:00:00 14.3 14 Sur 30 Sur 0 -- -- 68
2019-04-25 16:00:00 13.9 9 Sudeste 19 Sudeste 0 -- -- 73
2019-04-25 15:00:00 14.5 10 Sudeste 20 Oeste 0 -- -- 69
2019-04-25 14:00:00 14.2 6 Oeste 20 Noroeste 0.2 -- -- 72
2019-04-25 13:00:00 10.2 11 Noroeste 26 Oeste 1.2 -- -- 82
2019-04-25 12:00:00 10.6 17 Oeste 28 Oeste 0 -- -- 67
2019-04-25 11:00:00 11.2 13 Noroeste 28 Noroeste 0 -- -- 74
2019-04-25 10:00:00 11.7 15 Sudoeste 33 Sudoeste 0 -- -- 81
2019-04-25 09:00:00 11.5 18 Sudoeste 35 Oeste 0 -- -- 82
2019-04-25 08:00:00 10.8 13 Sudoeste 32 Sudoeste 0 -- -- 86
2019-04-25 07:00:00 10.3 15 Sudoeste 36 Sudoeste 0 -- -- 89
2019-04-25 06:00:00 10.1 12 Sudoeste 30 Sur 0 -- -- 90
2019-04-25 05:00:00 10.1 16 Sudoeste 35 Sudoeste 0 -- -- 89
2019-04-25 04:00:00 10.1 17 Sur 32 Sudoeste 0 -- -- 89
2019-04-25 03:00:00 10.2 14 Sur 30 Sur 0 -- -- 88
2019-04-25 02:00:00 10.1 8 Sudoeste 24 Sudoeste 0 -- -- 86
2019-04-25 01:00:00 10.1 17 Sudoeste 33 Sur 0 -- -- 83
2019-04-25 00:00:00 9.8 15 Sur 33 Sudeste 0 -- -- 81
2019-04-24 23:00:00 9.3 18 Sudoeste 31 Sudoeste 0 -- -- 80
2019-04-24 22:00:00 9 6 Oeste 25 Oeste 0 -- -- 77
2019-04-24 21:00:00 9.4 14 Sudoeste 30 Sudoeste 0 -- -- 68
2019-04-24 20:00:00 11.5 17 Sudoeste 37 Sur 0 -- -- 59
2019-04-24 19:00:00 12.8 21 Sudoeste 42 Oeste 0 -- -- 47
2019-04-24 18:00:00 12.7 26 Sudoeste 40 Sudoeste 0 -- -- 42
2019-04-24 17:00:00 12.8 21 Sudoeste 32 Oeste 0 -- -- 44
2019-04-24 16:00:00 10.9 19 Sudoeste 31 Sudoeste 0 -- -- 53
2019-04-24 15:00:00 11.6 17 Sudoeste 39 Oeste 0 -- -- 47
2019-04-24 14:00:00 12.9 23 Sudoeste 41 Sudoeste 0 -- -- 45
2019-04-24 13:00:00 13.3 20 Sudoeste 33 Sudoeste 0 -- -- 35
2019-04-24 12:00:00 11.9 16 Sudoeste 31 Oeste 0 -- -- 43
2019-04-24 11:00:00 11.8 15 Oeste 31 Noroeste 0 -- -- 45
2019-04-24 10:00:00 10.5 21 Oeste 35 Noroeste 0 -- -- 49
2019-04-24 09:00:00 9.4 25 Noroeste 40 Noroeste 0 -- -- 53
2019-04-24 08:00:00 8.2 21 Noroeste 35 Oeste 0 -- -- 57
2019-04-24 07:00:00 8.2 15 Oeste 27 Noroeste 0 -- -- 55
2019-04-24 06:00:00 7.7 13 Oeste 19 Oeste 0 -- -- 59
2019-04-24 05:00:00 8 11 Oeste 18 Noroeste 0 -- -- 73
2019-04-24 04:00:00 7.5 5 Noroeste 9 Oeste 0 -- -- 86
2019-04-24 03:00:00 9.7 6 Sudoeste 17 Oeste 0 -- -- 83
2019-04-24 02:00:00 9.9 5 Oeste 13 Sur 0 -- -- 84
2019-04-24 01:00:00 9.9 10 Sur 16 Sur 0 -- -- 84
2019-04-24 00:00:00 10.1 4 Sur 9 Sur 0 -- -- 86
2019-04-23 23:00:00 10.2 6 Sudeste 11 Sudeste 0 -- -- 84
2019-04-23 22:00:00 10.5 5 Sur 12 Sur 0 -- -- 83
2019-04-23 21:00:00 10.9 3 Sudeste 15 Sur 0 -- -- 79
2019-04-23 20:00:00 12.3 11 Sur 27 Sudoeste 0 -- -- 73
2019-04-23 19:00:00 14 12 Sur 27 Sudoeste 0 -- -- 64
2019-04-23 18:00:00 15.2 14 Sur 27 Oeste 0 -- -- 60
2019-04-23 17:00:00 18.1 14 Sur 32 Sur 0 -- -- 50
2019-04-23 16:00:00 17.7 17 Sur 27 Sur 0 -- -- 49
2019-04-23 15:00:00 17.6 14 Sudoeste 28 Sudoeste 0 -- -- 50
2019-04-23 14:00:00 16.8 15 Sudoeste 30 Oeste 0 -- -- 53
2019-04-23 13:00:00 15.1 10 Sudoeste 26 Sudoeste 0 -- -- 60
2019-04-23 12:00:00 13.4 10 Oeste 18 Sudoeste 0 -- -- 69
2019-04-23 11:00:00 12.7 11 Sudoeste 19 Oeste 0 -- -- 68
2019-04-23 10:00:00 11.9 9 Oeste 18 Oeste 0 -- -- 74
2019-04-23 09:00:00 11.1 0 Calma 8 Este 0 -- -- 82
2019-04-23 08:00:00 10.3 3 Oeste 8 Noroeste 0 -- -- 82
2019-04-23 07:00:00 9.6 0 Calma 12 Este 0.4 -- -- 83
2019-04-23 06:00:00 10.9 3 Norte 9 Sudoeste 0 -- -- 72
2019-04-23 05:00:00 10.7 5 Oeste 11 Oeste 0 -- -- 73
2019-04-23 04:00:00 10.9 5 Noroeste 14 Norte 0 -- -- 69
2019-04-23 03:00:00 11 4 Noroeste 12 Norte 0 -- -- 69
2019-04-23 02:00:00 11.2 5 Norte 14 Norte 0 -- -- 65
2019-04-23 01:00:00 11.4 11 Nordeste 30 Nordeste 0 -- -- 65
2019-04-23 00:00:00 11.2 10 Nordeste 23 Nordeste 0 -- -- 64
2019-04-22 23:00:00 11.1 4 Noroeste 19 Nordeste 0 -- -- 63
2019-04-22 22:00:00 11.4 10 Nordeste 18 Norte 0 -- -- 62
2019-04-22 21:00:00 11.7 9 Nordeste 18 Nordeste 0 -- -- 63
2019-04-22 20:00:00 11.8 2 Nordeste 16 Nordeste 0 -- -- 65
2019-04-22 19:00:00 12.3 7 Nordeste 19 Norte 0 -- -- 59
2019-04-22 18:00:00 12.3 9 Nordeste 19 Nordeste 0 -- -- 59
2019-04-22 17:00:00 12.2 4 Nordeste 19 Este 0 -- -- 65
2019-04-22 16:00:00 12.2 7 Este 24 Este 0 -- -- 67
2019-04-22 15:00:00 12.3 13 Este 34 Nordeste 0 -- -- 68
2019-04-22 14:00:00 13.6 17 Este 36 Nordeste 0 -- -- 59
2019-04-22 13:00:00 13.1 16 Este 31 Este 0 -- -- 61
2019-04-22 12:00:00 14.2 18 Nordeste 36 Nordeste 0 -- -- 49
2019-04-22 11:00:00 13.3 19 Nordeste 36 Nordeste 0 -- -- 51
2019-04-22 10:00:00 10.5 13 Nordeste 32 Este 0 -- -- 65
2019-04-22 09:00:00 10.9 18 Nordeste 35 Este 0 -- -- 60
2019-04-22 08:00:00 11 23 Nordeste 44 Nordeste 0 -- -- 55
2019-04-22 07:00:00 10.8 21 Nordeste 35 Nordeste 0 -- -- 58
2019-04-22 06:00:00 10.7 18 Este 40 Este 0 -- -- 60
2019-04-22 05:00:00 11.1 26 Nordeste 42 Nordeste 0 -- -- 55
2019-04-22 04:00:00 10.2 9 Este 26 Nordeste 0 -- -- 59
2019-04-22 03:00:00 10.4 13 Nordeste 29 Este 0 -- -- 57
2019-04-22 02:00:00 10.4 13 Este 22 Este 0 -- -- 57
2019-04-22 01:00:00 10.4 13 Este 28 Este 0 -- -- 61
2019-04-22 00:00:00 10.7 11 Nordeste 39 Nordeste 0 -- -- 62
2019-04-21 23:00:00 11.2 21 Nordeste 36 Nordeste 0 -- -- 59
2019-04-21 22:00:00 11.1 11 Nordeste 23 Nordeste 0 -- -- 60
2019-04-21 21:00:00 11.6 10 Nordeste 28 Este 0 -- -- 57
2019-04-21 20:00:00 12.2 15 Nordeste 31 Este 0 -- -- 55
2019-04-21 19:00:00 12.4 13 Este 34 Este 0 -- -- 58
2019-04-21 18:00:00 12.9 23 Este 46 Este 0 -- -- 53
2019-04-21 17:00:00 14 31 Este 49 Este 0 -- -- 45
2019-04-21 16:00:00 13.7 31 Este 55 Este 0 -- -- 44
2019-04-21 15:00:00 13.5 27 Este 52 Este 0 -- -- 48
2019-04-21 14:00:00 12.3 26 Este 50 Este 0 -- -- 54
2019-04-21 13:00:00 11.9 30 Este 51 Este 0 -- -- 59
2019-04-21 12:00:00 11.5 31 Este 57 Este 0 -- -- 61
2019-04-21 11:00:00 12.5 27 Este 53 Este 0 -- -- 57
2019-04-21 10:00:00 11.1 14 Nordeste 29 Nordeste 0 -- -- 60
2019-04-21 09:00:00 10.2 19 Nordeste 32 Nordeste 0 -- -- 63
2019-04-21 08:00:00 9.1 10 Este 23 Este 0 -- -- 70
2019-04-21 07:00:00 9 11 Este 26 Este 0 -- -- 69
2019-04-21 06:00:00 9.1 13 Nordeste 35 Este 0 -- -- 67
2019-04-21 05:00:00 9.2 21 Nordeste 38 Este 0 -- -- 65
2019-04-21 04:00:00 8.9 17 Nordeste 35 Este 0 -- -- 68
2019-04-21 03:00:00 7.8 16 Nordeste 32 Este 0.2 -- -- 76
2019-04-21 02:00:00 7.8 15 Nordeste 32 Nordeste 0 -- -- 74
2019-04-21 01:00:00 7.5 15 Nordeste 37 Este 0 -- -- 76
2019-04-21 00:00:00 7.5 16 Nordeste 37 Nordeste 0.2 -- -- 80
2019-04-20 23:00:00 7.7 12 Nordeste 40 Norte 0.6 -- -- 79
2019-04-20 22:00:00 7.7 15 Nordeste 40 Nordeste 1.2 -- -- 80
2019-04-20 21:00:00 8.1 19 Nordeste 35 Nordeste 4.2 -- -- 77
2019-04-20 20:00:00 8.4 13 Nordeste 31 Nordeste 1.4 -- -- 73
2019-04-20 19:00:00 8.5 16 Este 42 Este 2.8 -- -- 73
2019-04-20 18:00:00 10.4 22 Este 47 Este 1 -- -- 66
2019-04-20 17:00:00 13.4 30 Este 58 Este 0 -- -- 43
2019-04-20 16:00:00 14.1 37 Este 57 Este 0 -- -- 41
2019-04-20 15:00:00 14.1 30 Este 55 Este 0 -- -- 42
2019-04-20 14:00:00 13.7 35 Este 64 Este 0 -- -- 45
2019-04-20 13:00:00 13.7 40 Este 60 Este 0 -- -- 41
2019-04-20 12:00:00 13.9 32 Este 59 Este 0 -- -- 35
2019-04-20 11:00:00 13.7 23 Este 60 Este 0 -- -- 41
2019-04-20 10:00:00 13.4 35 Este 58 Este 0 -- -- 38
2019-04-20 09:00:00 13.1 32 Este 57 Este 0 -- -- 37
2019-04-20 08:00:00 12.5 35 Este 55 Este 0 -- -- 38
2019-04-20 07:00:00 12.5 28 Este 51 Nordeste 0 -- -- 40
2019-04-20 06:00:00 11.6 21 Este 44 Este 0 -- -- 44
2019-04-20 05:00:00 11.5 25 Este 57 Este 0 -- -- 44
2019-04-20 04:00:00 11.7 29 Este 53 Este 0 -- -- 44
2019-04-20 03:00:00 11.5 26 Este 54 Este 0 -- -- 45
2019-04-20 02:00:00 11.5 27 Este 57 Este 0 -- -- 47
2019-04-20 01:00:00 11.4 26 Este 48 Este 0 -- -- 49
2019-04-20 00:00:00 12.3 27 Este 42 Este 0 -- -- 40
2019-04-19 23:00:00 12.1 18 Este 34 Este 0 -- -- 44
2019-04-19 22:00:00 12.7 19 Este 40 Este 0 -- -- 48
2019-04-19 21:00:00 12.6 25 Este 54 Este 0 -- -- 52
2019-04-19 20:00:00 13.5 35 Este 57 Este 0 -- -- 48
2019-04-19 19:00:00 15.2 39 Este 60 Este 0 -- -- 44
2019-04-19 18:00:00 16.1 42 Este 72 Este 0 -- -- 36
2019-04-19 17:00:00 16.4 44 Este 64 Este 0 -- -- 39
2019-04-19 16:00:00 16.6 43 Este 68 Este 0 -- -- 42
2019-04-19 15:00:00 16.2 42 Este 66 Este 0 -- -- 43
2019-04-19 14:00:00 15.9 45 Este 71 Este 0 -- -- 42
2019-04-19 13:00:00 16.1 41 Este 71 Este 0 -- -- 45
2019-04-19 12:00:00 15 40 Este 71 Este 0 -- -- 47
2019-04-19 11:00:00 12.9 41 Este 66 Este 0 -- -- 60
2019-04-19 10:00:00 12.3 31 Este 51 Este 0 -- -- 57
2019-04-19 09:00:00 11.3 30 Este 49 Este 0 -- -- 63
2019-04-19 08:00:00 10.9 26 Este 49 Este 0 -- -- 62
2019-04-19 07:00:00 10.9 28 Este 50 Este 0 -- -- 62
2019-04-19 06:00:00 10.7 27 Este 48 Este 0 -- -- 64
2019-04-19 05:00:00 10.6 26 Este 48 Este 0 -- -- 63
2019-04-19 04:00:00 10.7 23 Este 50 Este 0 -- -- 63
2019-04-19 03:00:00 11 28 Este 48 Este 0 -- -- 62
2019-04-19 02:00:00 10.8 27 Este 51 Este 0 -- -- 62
2019-04-19 01:00:00 11 32 Este 59 Este 0 -- -- 61
2019-04-19 00:00:00 10.8 36 Este 57 Este 0 -- -- 60
2019-04-18 23:00:00 11 30 Este 55 Este 0 -- -- 58
2019-04-18 22:00:00 10.7 27 Este 48 Este 0 -- -- 69
2019-04-18 21:00:00 11.3 22 Este 42 Este 0 -- -- 69
2019-04-18 20:00:00 12.5 23 Este 49 Este 0 -- -- 63
2019-04-18 19:00:00 13 28 Este 59 Este 0 -- -- 64
2019-04-18 18:00:00 13.6 36 Este 63 Este 0 -- -- 62
2019-04-18 17:00:00 14.8 32 Este 56 Este 0 -- -- 55
2019-04-18 16:00:00 16.2 23 Este 68 Este 0 -- -- 48
2019-04-18 15:00:00 15.6 37 Este 64 Este 0 -- -- 46
2019-04-18 14:00:00 14.8 38 Este 57 Este 0 -- -- 46
2019-04-18 13:00:00 12.7 32 Este 46 Este 0 -- -- 47
2019-04-18 12:00:00 11.4 23 Este 42 Este 0 -- -- 57
2019-04-18 11:00:00 11 25 Este 38 Este 0 -- -- 60
2019-04-18 10:00:00 10.1 21 Este 32 Este 0 -- -- 68
2019-04-18 09:00:00 9.7 19 Este 28 Este 0 -- -- 71
2019-04-18 08:00:00 8.8 14 Este 25 Este 0 -- -- 80
2019-04-18 07:00:00 8.4 15 Este 31 Este 0 -- -- 84
2019-04-18 06:00:00 8.9 16 Este 27 Este 0 -- -- 85
2019-04-18 05:00:00 9.3 13 Este 22 Este 0 -- -- 87
2019-04-18 04:00:00 9.5 12 Este 22 Este 0 -- -- 86
2019-04-18 03:00:00 9.4 14 Este 30 Este 0 -- -- 85
2019-04-18 02:00:00 9.4 15 Este 24 Este 0 -- -- 84
2019-04-18 01:00:00 9.2 10 Este 17 Este 0 -- -- 85
2019-04-18 00:00:00 8.8 5 Este 9 Este 0 -- -- 83
2019-04-17 23:00:00 8.6 2 Este 7 Este 0 -- -- 81
2019-04-17 22:00:00 9 3 Este 11 Sudeste 0 -- -- 81
2019-04-17 21:00:00 9.9 5 Este 16 Sudeste 0 -- -- 78
2019-04-17 20:00:00 11.2 12 Sudeste 17 Sudeste 0 -- -- 71
2019-04-17 19:00:00 13 12 Sudeste 23 Sudeste 0 -- -- 60
2019-04-17 18:00:00 14.6 15 Sudeste 26 Sudeste 0 -- -- 55
2019-04-17 17:00:00 15.5 14 Sudeste 27 Sudeste 0 -- -- 53
2019-04-17 16:00:00 15.4 16 Sudeste 26 Sudeste 0 -- -- 51
2019-04-17 15:00:00 14.8 13 Sudeste 28 Sudeste 0 -- -- 55
2019-04-17 14:00:00 14.3 14 Sudeste 25 Sudeste 0 -- -- 58
2019-04-17 13:00:00 13.6 12 Sudeste 22 Sudeste 0 -- -- 61
2019-04-17 12:00:00 12.8 13 Sudeste 22 Sudeste 0 -- -- 65
2019-04-17 11:00:00 12.4 12 Sudeste 19 Sudeste 0 -- -- 66
2019-04-17 10:00:00 11.7 12 Sudeste 19 Sudeste 0 -- -- 68
2019-04-17 09:00:00 10.1 2 Noroeste 5 Noroeste 0 -- -- 84
2019-04-17 08:00:00 4.5 2 Noroeste 7 Noroeste 0 -- -- 87
2019-04-17 07:00:00 3.8 5 Noroeste 9 Noroeste 0 -- -- 89
2019-04-17 06:00:00 4.3 8 Noroeste 10 Noroeste 0 -- -- 88
2019-04-17 05:00:00 4.6 7 Noroeste 10 Noroeste 0 -- -- 89
2019-04-17 04:00:00 5.1 7 Noroeste 9 Noroeste 0 -- -- 88
2019-04-17 03:00:00 5.6 6 Noroeste 9 Noroeste 0 -- -- 85
2019-04-17 02:00:00 7.3 6 Noroeste 8 Noroeste 0 -- -- 84
2019-04-17 01:00:00 8.6 4 Noroeste 7 Noroeste 0 -- -- 82
2019-04-17 00:00:00 9.1 0 Calma 10 Sur 0 -- -- 79
2019-04-16 23:00:00 9.1 2 Oeste 10 Noroeste 0 -- -- 78
2019-04-16 22:00:00 8.2 0 Calma 4 Norte 0 -- -- 79
2019-04-16 21:00:00 9.4 3 Sudeste 9 Sudeste 0 -- -- 75
2019-04-16 20:00:00 11.9 5 Sudeste 19 Sudoeste 0 -- -- 58
2019-04-16 19:00:00 13.1 13 Sudoeste 26 Sudoeste 0 -- -- 52
2019-04-16 18:00:00 14.7 15 Sur 30 Sudoeste 0 -- -- 50
2019-04-16 17:00:00 14.8 14 Sur 28 Sudoeste 0 -- -- 50
2019-04-16 16:00:00 15.4 15 Sudoeste 28 Sudoeste 0 -- -- 43
2019-04-16 15:00:00 14.5 15 Sudeste 27 Sudeste 0 -- -- 52
2019-04-16 14:00:00 15.7 8 Sudeste 25 Este 0 -- -- 41
2019-04-16 13:00:00 15 10 Sudeste 25 Sudeste 0 -- -- 44
2019-04-16 12:00:00 13.8 3 Oeste 13 Sur 0 -- -- 48
2019-04-16 11:00:00 11.5 8 Sudeste 15 Sudeste 0 -- -- 55
2019-04-16 10:00:00 11.3 7 Este 15 Nordeste 0 -- -- 56
2019-04-16 09:00:00 10.9 0 Calma 6 Oeste 0 -- -- 61
2019-04-16 08:00:00 5.3 3 Noroeste 6 Noroeste 0 -- -- 82
2019-04-16 07:00:00 5.4 0 Calma 8 Noroeste 0 -- -- 81
2019-04-16 06:00:00 5.2 4 Noroeste 9 Noroeste 0 -- -- 83
2019-04-16 05:00:00 5.3 6 Noroeste 10 Noroeste 0 -- -- 86
2019-04-16 04:00:00 5.6 3 Noroeste 7 Noroeste 0 -- -- 85
2019-04-16 03:00:00 5.4 3 Noroeste 8 Oeste 0.2 -- -- 85
2019-04-16 02:00:00 5.6 0 Calma 6 Oeste 0 -- -- 82
2019-04-16 01:00:00 6.4 3 Noroeste 13 Sudeste 0.2 -- -- 67
2019-04-16 00:00:00 5.6 3 Noroeste 6 Noroeste 0 -- -- 62
2019-04-15 23:00:00 6.8 3 Sudeste 8 Sudeste 0 -- -- 55
2019-04-15 22:00:00 7.5 4 Sudeste 10 Sudeste 0 -- -- 50
2019-04-15 21:00:00 8.6 7 Sudeste 16 Sudeste 0 -- -- 45
2019-04-15 20:00:00 11.5 9 Sur 21 Sudeste 0 -- -- 39
2019-04-15 19:00:00 11.1 13 Sudeste 21 Sudeste 0 -- -- 40
2019-04-15 18:00:00 12.4 14 Sudeste 24 Sudeste 0 -- -- 36
2019-04-15 17:00:00 13.4 13 Sudeste 26 Sudeste 0 -- -- 34
2019-04-15 16:00:00 14.1 15 Sudeste 33 Sudeste 0 -- -- 33
2019-04-15 15:00:00 13 16 Sudeste 27 Sudeste 0 -- -- 42
2019-04-15 14:00:00 13.1 12 Sur 27 Sudoeste 0 -- -- 45
2019-04-15 13:00:00 13.4 14 Sudoeste 31 Sudoeste 0 -- -- 44
2019-04-15 12:00:00 13.2 12 Sur 26 Sudeste 0 -- -- 51
2019-04-15 11:00:00 11.8 15 Sudeste 24 Sudeste 0 -- -- 57
2019-04-15 10:00:00 11 12 Sudeste 19 Sudeste 0 -- -- 64
2019-04-15 09:00:00 9 9 Sudeste 13 Sudeste 0 -- -- 72
2019-04-15 08:00:00 5.1 6 Noroeste 9 Noroeste 0 -- -- 75
2019-04-15 07:00:00 4.3 8 Noroeste 13 Noroeste 0 -- -- 77
2019-04-15 06:00:00 4.9 9 Noroeste 13 Noroeste 0 -- -- 78
2019-04-15 05:00:00 5.4 8 Noroeste 10 Noroeste 0 -- -- 82
2019-04-15 04:00:00 6.9 6 Noroeste 9 Noroeste 0 -- -- 85
2019-04-15 03:00:00 8.7 0 Calma 16 Nordeste 0 -- -- 84
2019-04-15 02:00:00 8.7 9 Este 14 Este 0 -- -- 85
2019-04-15 01:00:00 9.5 9 Este 14 Este 0 -- -- 85
2019-04-15 00:00:00 9.3 9 Sudeste 13 Sudeste 0 -- -- 85
2019-04-14 23:00:00 9.2 3 Noroeste 4 Noroeste 0 -- -- 85
2019-04-14 22:00:00 9.6 3 Oeste 12 Sudeste 0 -- -- 84
2019-04-14 21:00:00 11.1 3 Este 13 Sudoeste 0 -- -- 76
2019-04-14 20:00:00 13.1 10 Sudoeste 13 Sudoeste 0 -- -- 67
2019-04-14 19:00:00 15.6 9 Sur 26 Sur 0 -- -- 54
2019-04-14 18:00:00 17 13 Sur 24 Sudeste 0 -- -- 50
2019-04-14 17:00:00 18.9 11 Sur 29 Sudeste 0 -- -- 43
2019-04-14 16:00:00 17.4 18 Sudeste 27 Sudeste 0 -- -- 45
2019-04-14 15:00:00 17.1 17 Sudeste 40 Oeste 0 -- -- 46
2019-04-14 14:00:00 18.9 25 Noroeste 48 Noroeste 0 -- -- 27
2019-04-14 13:00:00 18.7 26 Oeste 42 Oeste 0 -- -- 24
2019-04-14 12:00:00 17.2 12 Sur 25 Oeste 0 -- -- 24
2019-04-14 11:00:00 14.6 15 Sudeste 22 Sudeste 0 -- -- 28
2019-04-14 10:00:00 15.6 7 Este 23 Noroeste 0 -- -- 22
2019-04-14 09:00:00 14.3 9 Noroeste 23 Noroeste 0 -- -- 21
2019-04-14 08:00:00 11.1 15 Noroeste 25 Noroeste 0 -- -- 21
2019-04-14 07:00:00 7.6 8 Noroeste 11 Noroeste 0 -- -- 28
2019-04-14 06:00:00 7.9 5 Noroeste 12 Noroeste 0 -- -- 27
2019-04-14 05:00:00 8.8 10 Noroeste 13 Noroeste 0 -- -- 25
2019-04-14 04:00:00 9.8 8 Noroeste 12 Noroeste 0 -- -- 23
2019-04-14 03:00:00 6.9 7 Noroeste 13 Noroeste 0 -- -- 41
2019-04-14 02:00:00 9.7 9 Noroeste 14 Noroeste 0 -- -- 36
2019-04-14 01:00:00 8.5 10 Noroeste 15 Noroeste 0 -- -- 39
2019-04-14 00:00:00 6.6 8 Noroeste 14 Noroeste 0 -- -- 47
2019-04-13 23:00:00 8.3 11 Noroeste 14 Noroeste 0 -- -- 53
2019-04-13 22:00:00 7.8 8 Noroeste 10 Noroeste 0 -- -- 56
2019-04-13 21:00:00 10.1 6 Noroeste 10 Oeste 0 -- -- 49
2019-04-13 20:00:00 14.8 6 Sudoeste 23 Oeste 0 -- -- 34
2019-04-13 19:00:00 16.5 18 Sudoeste 30 Sudoeste 0 -- -- 34
2019-04-13 18:00:00 17.6 19 Sudoeste 31 Sudoeste 0 -- -- 29
2019-04-13 17:00:00 19.8 16 Oeste 30 Oeste 0 -- -- 11
2019-04-13 16:00:00 19.6 17 Oeste 26 Oeste 0 -- -- 6
2019-04-13 15:00:00 18.7 13 Oeste 28 Noroeste 0 -- -- 11
2019-04-13 14:00:00 18.1 12 Norte 29 Noroeste 0 -- -- 7
2019-04-13 13:00:00 17.2 9 Norte 26 Noroeste 0 -- -- 10
2019-04-13 12:00:00 15.4 13 Noroeste 27 Noroeste 0 -- -- 21
2019-04-13 11:00:00 13.4 15 Oeste 28 Noroeste 0 -- -- 28
2019-04-13 10:00:00 11.2 19 Noroeste 29 Noroeste 0 -- -- 34
2019-04-13 09:00:00 9.2 8 Oeste 17 Sudoeste 0 -- -- 46
2019-04-13 08:00:00 6.7 5 Oeste 14 Noroeste 0 -- -- 56
2019-04-13 07:00:00 4.8 8 Noroeste 13 Noroeste 0 -- -- 73
2019-04-13 06:00:00 5.4 6 Noroeste 14 Noroeste 0 -- -- 80
2019-04-13 05:00:00 2.7 7 Noroeste 9 Noroeste 0 -- -- 88
2019-04-13 04:00:00 4.2 2 Noroeste 9 Noroeste 0 -- -- 84
2019-04-13 03:00:00 6.2 4 Noroeste 9 Noroeste 0 -- -- 85
2019-04-13 02:00:00 7.6 3 Noroeste 5 Noroeste 0 -- -- 83
2019-04-13 01:00:00 8.1 0 Calma 4 Oeste 0 -- -- 82
2019-04-13 00:00:00 8.6 3 Nordeste 7 Este 0 -- -- 82
2019-04-12 23:00:00 9.2 2 Este 8 Sudeste 0 -- -- 82
2019-04-12 22:00:00 9.5 4 Sudeste 11 Sudeste 0 -- -- 81
2019-04-12 21:00:00 9.8 6 Sudeste 17 Sudeste 0 -- -- 78
2019-04-12 20:00:00 11.6 12 Sudeste 27 Sudeste 0 -- -- 65
2019-04-12 19:00:00 15.1 17 Sudeste 27 Sudeste 0 -- -- 48
2019-04-12 18:00:00 19 8 Norte 28 Oeste 0 -- -- 19
2019-04-12 17:00:00 18 18 Oeste 33 Oeste 0 -- -- 19
2019-04-12 16:00:00 17.9 14 Noroeste 33 Norte 0 -- -- 20
2019-04-12 15:00:00 16.9 16 Noroeste 37 Noroeste 0 -- -- 22
2019-04-12 14:00:00 15.9 24 Noroeste 45 Noroeste 0 -- -- 23
2019-04-12 13:00:00 14.6 25 Noroeste 41 Noroeste 0 -- -- 31
2019-04-12 12:00:00 13.4 22 Noroeste 41 Noroeste 0 -- -- 36
2019-04-12 11:00:00 12.2 20 Noroeste 36 Noroeste 0 -- -- 42
2019-04-12 10:00:00 11.1 12 Noroeste 29 Noroeste 0 -- -- 44
2019-04-12 09:00:00 6.8 17 Oeste 31 Noroeste 0 -- -- 63
2019-04-12 08:00:00 6.3 12 Noroeste 32 Noroeste 0 -- -- 62
2019-04-12 07:00:00 5.9 19 Noroeste 36 Noroeste 0 -- -- 65
2019-04-12 06:00:00 6.1 24 Noroeste 36 Noroeste 0 -- -- 63
2019-04-12 05:00:00 6.8 10 Noroeste 28 Noroeste 0 -- -- 61
2019-04-12 04:00:00 7.1 20 Noroeste 36 Noroeste 0 -- -- 58
2019-04-12 03:00:00 8.2 8 Noroeste 18 Noroeste 0 -- -- 52
2019-04-12 02:00:00 9.4 5 Noroeste 25 Norte 0 -- -- 48
2019-04-12 01:00:00 9.4 9 Noroeste 21 Noroeste 0 -- -- 46
2019-04-12 00:00:00 7.2 5 Noroeste 8 Noroeste 0 -- -- 61
2019-04-11 23:00:00 9.4 0 Calma 9 Este 0 -- -- 54
2019-04-11 22:00:00 9.7 2 Noroeste 16 Oeste 0 -- -- 52
2019-04-11 21:00:00 11.1 13 Oeste 33 Noroeste 0 -- -- 49
2019-04-11 20:00:00 14.3 5 Norte 30 Noroeste 0 -- -- 29
2019-04-11 19:00:00 15.4 20 Noroeste 36 Noroeste 0 -- -- 25
2019-04-11 18:00:00 16.3 19 Noroeste 42 Noroeste 0 -- -- 24
2019-04-11 17:00:00 17.2 15 Noroeste 39 Noroeste 0 -- -- 23
2019-04-11 16:00:00 16.8 15 Noroeste 36 Noroeste 0 -- -- 20
2019-04-11 15:00:00 15.9 19 Noroeste 39 Noroeste 0 -- -- 24
2019-04-11 14:00:00 14.9 19 Noroeste 37 Oeste 0 -- -- 26
2019-04-11 13:00:00 13.6 22 Noroeste 37 Oeste 0 -- -- 34
2019-04-11 12:00:00 13.2 21 Noroeste 41 Noroeste 0 -- -- 32
2019-04-11 11:00:00 12.4 19 Noroeste 35 Noroeste 0 -- -- 35
2019-04-11 10:00:00 10.8 19 Noroeste 36 Noroeste 0 -- -- 40
2019-04-11 09:00:00 8.3 15 Noroeste 32 Noroeste 0 -- -- 51
2019-04-11 08:00:00 5.3 22 Noroeste 33 Noroeste 0 -- -- 66
2019-04-11 07:00:00 5.8 17 Noroeste 30 Noroeste 0 -- -- 63
2019-04-11 06:00:00 7.1 11 Noroeste 23 Oeste 0 -- -- 57
2019-04-11 05:00:00 7.4 12 Noroeste 26 Noroeste 0 -- -- 60
2019-04-11 04:00:00 7.7 7 Noroeste 24 Norte 0 -- -- 56
2019-04-11 03:00:00 9 9 Norte 19 Norte 0 -- -- 42
2019-04-11 02:00:00 8.1 4 Noroeste 9 Norte 0 -- -- 51
2019-04-11 01:00:00 6.8 5 Noroeste 9 Noroeste 0 -- -- 67
2019-04-11 00:00:00 7.2 9 Noroeste 16 Noroeste 0 -- -- 68
2019-04-10 23:00:00 6.5 9 Noroeste 12 Noroeste 0 -- -- 70
2019-04-10 22:00:00 7.7 4 Noroeste 12 Noroeste 0 -- -- 66
2019-04-10 21:00:00 8.9 6 Oeste 9 Noroeste 0 -- -- 62
2019-04-10 20:00:00 10.1 0 Calma 17 Nordeste 0 -- -- 60
2019-04-10 19:00:00 11.5 5 Sudeste 19 Sudeste 0 -- -- 48
2019-04-10 18:00:00 12.2 11 Sur 21 Sudeste 0 -- -- 48
2019-04-10 17:00:00 13.6 9 Nordeste 24 Noroeste 0 -- -- 33
2019-04-10 16:00:00 14.3 10 Noroeste 29 Oeste 0 -- -- 34
2019-04-10 15:00:00 13 15 Noroeste 24 Noroeste 0 -- -- 42
2019-04-10 14:00:00 15.3 12 Noroeste 27 Oeste 0 -- -- 38
2019-04-10 13:00:00 13.8 8 Noroeste 19 Nordeste 0 -- -- 43
2019-04-10 12:00:00 12.5 10 Norte 21 Norte 0 -- -- 48
2019-04-10 11:00:00 10.4 10 Norte 23 Noroeste 0 -- -- 64
2019-04-10 10:00:00 7.9 7 Oeste 24 Noroeste 0 -- -- 73
2019-04-10 09:00:00 6.9 9 Noroeste 26 Noroeste 0 -- -- 77
2019-04-10 08:00:00 5.8 12 Noroeste 32 Noroeste 0 -- -- 82
2019-04-10 07:00:00 5.6 17 Noroeste 29 Noroeste 0 -- -- 82
2019-04-10 06:00:00 6 12 Noroeste 30 Noroeste 0 -- -- 80
2019-04-10 05:00:00 6.1 11 Oeste 30 Noroeste 0 -- -- 81
2019-04-10 04:00:00 6.5 15 Oeste 25 Oeste 0.2 -- -- 79
2019-04-10 03:00:00 6.6 7 Oeste 13 Oeste 0 -- -- 80
2019-04-10 02:00:00 6.2 5 Oeste 12 Oeste 0 -- -- 81
2019-04-10 01:00:00 5.9 9 Oeste 21 Oeste 0 -- -- 81
2019-04-10 00:00:00 6.3 13 Oeste 24 Oeste 0 -- -- 85
2019-04-09 23:00:00 6.7 16 Oeste 26 Oeste 0.6 -- -- 82
2019-04-09 22:00:00 5.4 5 Noroeste 12 Noroeste 0 -- -- 83
2019-04-09 21:00:00 5.9 4 Noroeste 6 Noroeste 0.2 -- -- 83
2019-04-09 20:00:00 6.6 0 Calma 40 Este 0.4 -- -- 77
2019-04-09 19:00:00 8.7 21 Este 37 Este 0 -- -- 60
2019-04-09 18:00:00 12.6 12 Sudoeste 27 Sur 0 -- -- 56
2019-04-09 17:00:00 13.1 11 Sur 28 Sudoeste 0 -- -- 54
2019-04-09 16:00:00 14.9 10 Sudoeste 37 Noroeste 0 -- -- 44
2019-04-09 15:00:00 15.7 23 Oeste 40 Noroeste 0 -- -- 28
2019-04-09 14:00:00 13.7 23 Noroeste 42 Oeste 0 -- -- 39
2019-04-09 13:00:00 13.4 26 Oeste 43 Oeste 0 -- -- 44
2019-04-09 12:00:00 11.6 26 Noroeste 49 Noroeste 0 -- -- 49
2019-04-09 11:00:00 10.3 30 Noroeste 46 Noroeste 0 -- -- 55
2019-04-09 10:00:00 10.6 21 Noroeste 42 Noroeste 0 -- -- 54
2019-04-09 09:00:00 9.3 18 Noroeste 37 Noroeste 0 -- -- 57
2019-04-09 08:00:00 7.1 25 Noroeste 46 Noroeste 0 -- -- 73
2019-04-09 07:00:00 7.8 24 Noroeste 38 Noroeste 0 -- -- 75
2019-04-09 06:00:00 8.4 14 Noroeste 28 Noroeste 0 -- -- 68
2019-04-09 05:00:00 8.8 7 Oeste 17 Oeste 0 -- -- 68
2019-04-09 04:00:00 7.4 10 Noroeste 14 Noroeste 0 -- -- 75
2019-04-09 03:00:00 7.5 8 Noroeste 14 Noroeste 0 -- -- 69
2019-04-09 02:00:00 7.1 10 Noroeste 14 Noroeste 0 -- -- 71
2019-04-09 01:00:00 8.2 10 Noroeste 31 Oeste 0 -- -- 71
2019-04-09 00:00:00 9.4 11 Noroeste 17 Oeste 0 -- -- 71
2019-04-08 23:00:00 9.4 7 Noroeste 15 Noroeste 0 -- -- 73
2019-04-08 22:00:00 8.7 10 Noroeste 15 Noroeste 0 -- -- 76
2019-04-08 21:00:00 10.1 9 Noroeste 17 Noroeste 0 -- -- 67
2019-04-08 20:00:00 13.4 10 Oeste 32 Oeste 0 -- -- 54
2019-04-08 19:00:00 15.4 14 Noroeste 34 Noroeste 0 -- -- 45
2019-04-08 18:00:00 16 24 Oeste 39 Noroeste 0 -- -- 44
2019-04-08 17:00:00 16.1 24 Noroeste 41 Noroeste 0 -- -- 44
2019-04-08 16:00:00 14.9 20 Noroeste 43 Noroeste 0 -- -- 48
2019-04-08 15:00:00 13.7 27 Noroeste 45 Noroeste 0 -- -- 51
2019-04-08 14:00:00 13.6 22 Noroeste 40 Noroeste 0 -- -- 51
2019-04-08 13:00:00 13.1 22 Noroeste 39 Noroeste 0 -- -- 51
2019-04-08 12:00:00 11.9 24 Oeste 35 Noroeste 0 -- -- 52
2019-04-08 11:00:00 10.8 15 Noroeste 29 Noroeste 0 -- -- 52
2019-04-08 10:00:00 9.7 14 Oeste 27 Oeste 0 -- -- 55
2019-04-08 09:00:00 8.8 18 Oeste 27 Oeste 0 -- -- 56
2019-04-08 08:00:00 7.4 12 Oeste 21 Oeste 0 -- -- 61
2019-04-08 07:00:00 7.5 11 Oeste 19 Oeste 0 -- -- 61
2019-04-08 06:00:00 5.3 6 Noroeste 11 Noroeste 0 -- -- 68
2019-04-08 05:00:00 3.5 7 Noroeste 11 Noroeste 0 -- -- 79
2019-04-08 04:00:00 5.7 9 Noroeste 14 Noroeste 0 -- -- 69
2019-04-08 03:00:00 3.3 10 Noroeste 12 Noroeste 0 -- -- 80
2019-04-08 02:00:00 3 8 Noroeste 11 Noroeste 0 -- -- 83
2019-04-08 01:00:00 2 6 Noroeste 10 Noroeste 0 -- -- 83
2019-04-08 00:00:00 3 6 Noroeste 9 Noroeste 0 -- -- 83
2019-04-07 23:00:00 4.5 7 Noroeste 13 Noroeste 0 -- -- 79
2019-04-07 22:00:00 5.9 10 Noroeste 18 Oeste 0 -- -- 75
2019-04-07 21:00:00 6.5 4 Oeste 8 Oeste 0 -- -- 76
2019-04-07 20:00:00 7.3 0 Calma 18 Sudeste 0 -- -- 73
2019-04-07 19:00:00 7.4 9 Sudeste 23 Este 0 -- -- 76
2019-04-07 18:00:00 7.4 15 Este 38 Este 0 -- -- 69
2019-04-07 17:00:00 14.9 16 Noroeste 32 Oeste 0 -- -- 31
2019-04-07 16:00:00 14.5 6 Oeste 26 Oeste 0 -- -- 32
2019-04-07 15:00:00 13.6 15 Oeste 31 Noroeste 0 -- -- 39
2019-04-07 14:00:00 12.3 17 Noroeste 40 Noroeste 0 -- -- 43
2019-04-07 13:00:00 11.2 15 Noroeste 53 Noroeste 0 -- -- 49
2019-04-07 12:00:00 9.3 26 Noroeste 53 Noroeste 0 -- -- 59
2019-04-07 11:00:00 7.6 32 Noroeste 55 Noroeste 0 -- -- 64
2019-04-07 10:00:00 6.8 24 Noroeste 49 Noroeste 0 -- -- 71
2019-04-07 09:00:00 5.9 28 Noroeste 41 Noroeste 0 -- -- 72
2019-04-07 08:00:00 4.8 23 Noroeste 40 Noroeste 0 -- -- 75
2019-04-07 07:00:00 4.3 21 Noroeste 36 Noroeste 0 -- -- 77
2019-04-07 06:00:00 4.8 15 Noroeste 32 Noroeste 0 -- -- 73
2019-04-07 05:00:00 5 10 Oeste 19 Noroeste 0 -- -- 71
2019-04-07 04:00:00 4.6 6 Noroeste 14 Noroeste 0 -- -- 73
2019-04-07 03:00:00 4.2 5 Oeste 11 Oeste 0 -- -- 73
2019-04-07 02:00:00 4.4 5 Oeste 9 Oeste 0 -- -- 74
2019-04-07 01:00:00 5.7 3 Noroeste 11 Noroeste 0 -- -- 68
2019-04-07 00:00:00 5.7 5 Oeste 14 Noroeste 0 -- -- 65
2019-04-06 23:00:00 6.3 5 Noroeste 19 Oeste 0 -- -- 66
2019-04-06 22:00:00 5.2 13 Noroeste 17 Oeste 0 -- -- 75
2019-04-06 21:00:00 4.9 5 Noroeste 10 Sur 0 -- -- 70
2019-04-06 20:00:00 -- -- -- -- -- -- -- -- --
2019-04-06 19:00:00 10.2 18 Sudoeste 32 Oeste 0 -- -- 51
2019-04-06 18:00:00 9.3 21 Oeste 35 Oeste 0 -- -- 50
2019-04-06 17:00:00 10.2 15 Oeste 35 Oeste 0 -- -- 45
2019-04-06 16:00:00 11 22 Noroeste 40 Noroeste 0 -- -- 43
2019-04-06 15:00:00 10.1 22 Noroeste 41 Noroeste 0 -- -- 47
2019-04-06 14:00:00 10 27 Oeste 50 Oeste 0 -- -- 49
2019-04-06 13:00:00 8.7 36 Oeste 54 Oeste 0 -- -- 52
2019-04-06 12:00:00 8.3 17 Oeste 39 Oeste 0 -- -- 59
2019-04-06 11:00:00 6.4 25 Oeste 52 Oeste 0 -- -- 65
2019-04-06 10:00:00 6.1 38 Noroeste 58 Noroeste 0 -- -- 67
2019-04-06 09:00:00 5.2 31 Noroeste 50 Oeste 0 -- -- 73
2019-04-06 08:00:00 4.3 18 Noroeste 30 Oeste 0 -- -- 76
2019-04-06 07:00:00 3.6 13 Noroeste 46 Noroeste 0 -- -- 81
2019-04-06 06:00:00 3.6 26 Noroeste 45 Noroeste 0 -- -- 82
2019-04-06 05:00:00 3.9 23 Noroeste 34 Oeste 1.6 -- -- 84
2019-04-06 04:00:00 4.4 17 Oeste 29 Noroeste 1.6 -- -- 84
2019-04-06 03:00:00 6.2 9 Oeste 26 Oeste 0 -- -- 86
2019-04-06 02:00:00 5.8 9 Oeste 39 Sudoeste 1.6 -- -- 85
2019-04-06 01:00:00 6.4 0 Calma 5 Noroeste 1.2 -- -- 88
2019-04-06 00:00:00 6.5 0 Calma 21 Oeste 1 -- -- 86
2019-04-05 23:00:00 6.7 13 Oeste 37 Oeste 1.2 -- -- 85
2019-04-05 22:00:00 8.2 13 Oeste 36 Sur 0.2 -- -- 82
2019-04-05 21:00:00 8.9 10 Sur 26 Sudeste 0.8 -- -- 84
2019-04-05 20:00:00 9.3 7 Sur 27 Sudoeste 0 -- -- 78
2019-04-05 19:00:00 9.9 11 Sur 28 Sur 0 -- -- 72
2019-04-05 18:00:00 11 19 Sudoeste 32 Sudoeste 0 -- -- 62
2019-04-05 17:00:00 11.2 16 Sur 33 Sur 0 -- -- 58
2019-04-05 16:00:00 11.5 14 Sur 29 Sudoeste 0 -- -- 58
2019-04-05 15:00:00 13.1 15 Sur 27 Sur 0 -- -- 55
2019-04-05 14:00:00 11.2 16 Sur 27 Sudoeste 0 -- -- 68
2019-04-05 13:00:00 10.3 10 Sudoeste 17 Sudoeste 0 -- -- 76
2019-04-05 12:00:00 8 9 Sudoeste 20 Sudoeste 0.6 -- -- 85
2019-04-05 11:00:00 8.1 11 Sur 23 Sudoeste 0.4 -- -- 84
2019-04-05 10:00:00 7.7 8 Sudoeste 18 Sur 0 -- -- 83
2019-04-05 09:00:00 7.9 12 Sudoeste 22 Sudoeste 0 -- -- 81
2019-04-05 08:00:00 6.6 8 Sudoeste 21 Oeste 0 -- -- 82
2019-04-05 07:00:00 6.4 14 Sudoeste 30 Oeste 0 -- -- 82
2019-04-05 06:00:00 6 8 Oeste 34 Oeste 0 -- -- 81
2019-04-05 05:00:00 6.1 11 Oeste 22 Sudoeste 0 -- -- 80
2019-04-05 04:00:00 5.1 11 Oeste 21 Oeste 0 -- -- 80
2019-04-05 03:00:00 5.2 5 Noroeste 30 Oeste 0 -- -- 74
2019-04-05 02:00:00 5.1 12 Noroeste 23 Noroeste 0 -- -- 70
2019-04-05 01:00:00 4.5 14 Noroeste 24 Oeste 0 -- -- 67
2019-04-05 00:00:00 3.4 14 Noroeste 19 Noroeste 0 -- -- 71
2019-04-04 23:00:00 4.6 8 Noroeste 15 Noroeste 0 -- -- 65
2019-04-04 22:00:00 4.9 9 Noroeste 18 Noroeste 0 -- -- 61
2019-04-04 21:00:00 6.3 13 Noroeste 26 Oeste 0 -- -- 53
2019-04-04 20:00:00 9.9 14 Noroeste 28 Oeste 0 -- -- 27
2019-04-04 19:00:00 11.7 19 Noroeste 35 Oeste 0 -- -- 23
2019-04-04 18:00:00 11.9 23 Noroeste 41 Noroeste 0 -- -- 21
2019-04-04 17:00:00 11.6 25 Noroeste 42 Oeste 0 -- -- 19
2019-04-04 16:00:00 11.5 19 Noroeste 39 Oeste 0 -- -- 25
2019-04-04 15:00:00 10.6 24 Noroeste 37 Noroeste 0 -- -- 29
2019-04-04 14:00:00 10.1 17 Noroeste 35 Noroeste 0 -- -- 30
2019-04-04 13:00:00 8.3 19 Noroeste 47 Oeste 0 -- -- 36
2019-04-04 12:00:00 6.9 22 Noroeste 47 Noroeste 0 -- -- 43
2019-04-04 11:00:00 5.8 32 Noroeste 49 Noroeste 0 -- -- 45
2019-04-04 10:00:00 3.9 35 Noroeste 61 Noroeste 0 -- -- 52
2019-04-04 09:00:00 1.9 44 Noroeste 59 Noroeste 0 -- -- 60
2019-04-04 08:00:00 1 36 Noroeste 57 Noroeste 0 -- -- 63
2019-04-04 07:00:00 1 37 Noroeste 58 Noroeste 0 -- -- 61
2019-04-04 06:00:00 1.4 33 Noroeste 55 Noroeste 0 -- -- 58
2019-04-04 05:00:00 1.8 29 Noroeste 48 Noroeste 0 -- -- 56
2019-04-04 04:00:00 2.3 26 Noroeste 48 Noroeste 0 -- -- 54
2019-04-04 03:00:00 3 31 Noroeste 44 Noroeste 0 -- -- 52
2019-04-04 02:00:00 3.6 19 Oeste 49 Oeste 0 -- -- 51
2019-04-04 01:00:00 3.9 34 Noroeste 49 Noroeste 0 -- -- 54
2019-04-04 00:00:00 4.6 33 Noroeste 52 Noroeste 0 -- -- 55
2019-04-03 23:00:00 5.3 35 Noroeste 52 Noroeste 0 -- -- 58
2019-04-03 22:00:00 5.6 25 Noroeste 40 Oeste 0 -- -- 69
2019-04-03 21:00:00 5.3 14 Noroeste 27 Noroeste 0.2 -- -- 73
2019-04-03 20:00:00 5.3 18 Noroeste 35 Oeste 0.8 -- -- 78
2019-04-03 19:00:00 6.6 19 Noroeste 40 Norte 0 -- -- 74
2019-04-03 18:00:00 7.7 23 Noroeste 40 Noroeste 0 -- -- 66
2019-04-03 17:00:00 9.1 22 Noroeste 41 Noroeste 0 -- -- 55
2019-04-03 16:00:00 11.4 23 Noroeste 38 Noroeste 0 -- -- 44
2019-04-03 15:00:00 13.3 26 Noroeste 37 Oeste 0 -- -- 46
2019-04-03 14:00:00 11.9 17 Noroeste 35 Oeste 0 -- -- 55
2019-04-03 13:00:00 12.6 20 Oeste 31 Oeste 0 -- -- 54
2019-04-03 12:00:00 12.2 11 Oeste 19 Oeste 0 -- -- 63
2019-04-03 11:00:00 10.8 13 Oeste 20 Sudoeste 0 -- -- 71
2019-04-03 10:00:00 11.4 8 Sudoeste 14 Sudoeste 0 -- -- 70
2019-04-03 09:00:00 9.1 6 Noroeste 13 Sudoeste 0 -- -- 84
2019-04-03 08:00:00 8.8 8 Oeste 12 Sudoeste 0 -- -- 87
2019-04-03 07:00:00 8.6 3 Este 10 Sudeste 0 -- -- 87
2019-04-03 06:00:00 8.4 0 Calma 6 Noroeste 0 -- -- 86
2019-04-03 05:00:00 8.3 0 Calma 7 Oeste 0 -- -- 87
2019-04-03 04:00:00 8.5 0 Calma 6 Sur 0 -- -- 87
2019-04-03 03:00:00 8 0 Calma 4 Noroeste 0 -- -- 87
2019-04-03 02:00:00 6.6 3 Noroeste 5 Noroeste 0 -- -- 88
2019-04-03 01:00:00 6.1 2 Noroeste 7 Noroeste 0 -- -- 87
2019-04-03 00:00:00 6.8 4 Noroeste 7 Noroeste 0 -- -- 85
2019-04-02 23:00:00 8.1 0 Calma 10 Noroeste 0 -- -- 85
2019-04-02 22:00:00 8.4 6 Noroeste 9 Noroeste 0 -- -- 83
2019-04-02 21:00:00 9.9 5 Noroeste 19 Oeste 0 -- -- 81
2019-04-02 20:00:00 11.9 14 Noroeste 22 Oeste 0 -- -- 73
2019-04-02 19:00:00 14.3 13 Sudoeste 23 Oeste 0 -- -- 60
2019-04-02 18:00:00 14.3 17 Oeste 34 Oeste 0 -- -- 62
2019-04-02 17:00:00 15.5 19 Sudoeste 36 Oeste 0 -- -- 52
2019-04-02 16:00:00 15.7 16 Oeste 32 Oeste 0 -- -- 47
2019-04-02 15:00:00 17.2 17 Oeste 30 Oeste 0 -- -- 36
2019-04-02 14:00:00 15.7 11 Oeste 20 Oeste 0 -- -- 45
2019-04-02 13:00:00 14.3 12 Oeste 21 Sudoeste 0 -- -- 47
2019-04-02 12:00:00 14 13 Noroeste 24 Noroeste 0 -- -- 45
2019-04-02 11:00:00 14.8 8 Noroeste 18 Oeste 0 -- -- 40
2019-04-02 10:00:00 13.3 6 Oeste 11 Noroeste 0 -- -- 43
2019-04-02 09:00:00 9 3 Noroeste 8 Noroeste 0 -- -- 59
2019-04-02 08:00:00 7.1 6 Noroeste 9 Noroeste 0 -- -- 63
2019-04-02 07:00:00 7.3 5 Noroeste 10 Noroeste 0 -- -- 59
2019-04-02 06:00:00 9 5 Noroeste 11 Noroeste 0 -- -- 50
2019-04-02 05:00:00 8.4 6 Oeste 13 Noroeste 0 -- -- 47
2019-04-02 04:00:00 8.8 5 Noroeste 12 Noroeste 0 -- -- 39
2019-04-02 03:00:00 8.4 5 Noroeste 12 Noroeste 0 -- -- 41
2019-04-02 02:00:00 8.3 5 Noroeste 11 Noroeste 0 -- -- 39
2019-04-02 01:00:00 7.6 7 Noroeste 9 Noroeste 0 -- -- 41
2019-04-02 00:00:00 7.6 6 Noroeste 12 Noroeste 0 -- -- 43
2019-04-01 23:00:00 6.9 8 Noroeste 12 Noroeste 0 -- -- 54
2019-04-01 22:00:00 7.8 8 Noroeste 9 Noroeste 0 -- -- 59
2019-04-01 21:00:00 8.7 5 Noroeste 14 Oeste 0 -- -- 56
2019-04-01 20:00:00 11 10 Oeste 18 Oeste 0 -- -- 48
2019-04-01 19:00:00 14 13 Oeste 23 Sudoeste 0 -- -- 37
2019-04-01 18:00:00 15.6 15 Sur 28 Sur 0 -- -- 37
2019-04-01 17:00:00 16 16 Sur 32 Sur 0 -- -- 36
2019-04-01 16:00:00 16.5 16 Sur 30 Sudoeste 0 -- -- 34
2019-04-01 15:00:00 17.8 12 Sudeste 25 Sudeste 0 -- -- 30
2019-04-01 14:00:00 16.2 9 Sudeste 21 Sudeste 0 -- -- 29
2019-04-01 13:00:00 15.7 5 Este 15 Sudeste 0 -- -- 30
2019-04-01 12:00:00 14 6 Sudeste 15 Sudeste 0 -- -- 35
2019-04-01 11:00:00 11.6 9 Sudeste 17 Sudeste 0 -- -- 38
2019-04-01 10:00:00 13.2 3 Sur 7 Sudeste 0 -- -- 36
2019-04-01 09:00:00 7.4 4 Noroeste 8 Noroeste 0 -- -- 55
2019-04-01 08:00:00 6.2 4 Noroeste 8 Noroeste 0 -- -- 60
2019-04-01 07:00:00 6.4 3 Noroeste 5 Noroeste 0 -- -- 59
2019-04-01 06:00:00 6.5 4 Noroeste 4 Noroeste 0 -- -- 59
2019-04-01 05:00:00 6.3 0 Calma 5 Noroeste 0 -- -- 59
2019-04-01 04:00:00 6.5 3 Noroeste 6 Noroeste 0 -- -- 57
2019-04-01 03:00:00 7.1 4 Noroeste 6 Noroeste 0 -- -- 57
2019-04-01 02:00:00 7.6 2 Noroeste 4 Oeste 0 -- -- 60
2019-04-01 01:00:00 8.1 3 Este 6 Sudeste 0 -- -- 59
2019-04-01 00:00:00 8.5 3 Sudeste 8 Este 0 -- -- 51
2019-03-31 23:00:00 8.7 4 Este 11 Este 0 -- -- 46
2019-03-31 22:00:00 9.1 5 Este 13 Este 0 -- -- 36
2019-03-31 21:00:00 9.3 4 Este 17 Este 0 -- -- 46
2019-03-31 20:00:00 10.7 10 Este 23 Este 0 -- -- 51
2019-03-31 19:00:00 12.2 10 Sudeste 25 Sudeste 0 -- -- 52
2019-03-31 18:00:00 13 17 Este 28 Este 0 -- -- 49
2019-03-31 17:00:00 13.7 14 Este 29 Este 0 -- -- 52
2019-03-31 16:00:00 13.4 13 Este 30 Este 0 -- -- 53
2019-03-31 15:00:00 12.8 16 Este 27 Este 0 -- -- 57
2019-03-31 14:00:00 11.6 19 Este 30 Este 0 -- -- 63
2019-03-31 13:00:00 10.1 16 Este 30 Este 0 -- -- 70
2019-03-31 12:00:00 9.1 11 Este 24 Nordeste 0 -- -- 76
2019-03-31 11:00:00 8.6 17 Nordeste 24 Nordeste 0 -- -- 78
2019-03-31 10:00:00 7.5 12 Este 19 Este 0 -- -- 84
2019-03-31 09:00:00 7 8 Este 13 Este 0 -- -- 83
2019-03-31 08:00:00 5.3 0 Calma 4 Noroeste 0 -- -- 88
2019-03-31 07:00:00 3.7 0 Calma 5 Noroeste 0 -- -- 89
2019-03-31 06:00:00 1.8 4 Oeste 9 Noroeste 0 -- -- 89
2019-03-31 05:00:00 1.6 7 Noroeste 8 Noroeste 0 -- -- 88
2019-03-31 03:00:00 4.1 0 Calma 8 Este 0 -- -- 87
2019-03-31 01:00:00 4.4 0 Calma 10 Este 0 -- -- 86
2019-03-31 00:00:00 5.7 6 Este 12 Nordeste 0 -- -- 83
2019-03-30 23:00:00 4.9 0 Calma 5 Noroeste 0 -- -- 83
2019-03-30 22:00:00 4.9 0 Calma 5 Este 0 -- -- 82
2019-03-30 21:00:00 6.6 5 Sudeste 15 Sudeste 0 -- -- 78
2019-03-30 20:00:00 7.7 4 Sudeste 10 Este 0 -- -- 72
2019-03-30 19:00:00 9.6 5 Sudeste 15 Sudeste 0 -- -- 62
2019-03-30 18:00:00 11.5 11 Sudeste 21 Sudeste 0 -- -- 54
2019-03-30 17:00:00 12.3 14 Sudeste 23 Sudeste 0 -- -- 51
2019-03-30 16:00:00 13.1 13 Sudeste 29 Sudeste 0 -- -- 47
2019-03-30 15:00:00 13.4 15 Sudeste 30 Sudeste 0 -- -- 44
2019-03-30 14:00:00 14.2 13 Sudeste 28 Sudeste 0 -- -- 40
2019-03-30 13:00:00 13.2 14 Sudeste 25 Sudeste 0 -- -- 42
2019-03-30 12:00:00 12.6 9 Sur 24 Sudeste 0 -- -- 43
2019-03-30 11:00:00 11.3 13 Sudeste 21 Sudeste 0 -- -- 55
2019-03-30 10:00:00 10.4 8 Sudeste 16 Sudeste 0 -- -- 56
2019-03-30 09:00:00 9.6 6 Este 10 Este 0 -- -- 58
2019-03-30 08:00:00 4.8 2 Noroeste 10 Noroeste 0 -- -- 86
2019-03-30 07:00:00 0.2 7 Noroeste 10 Noroeste 0 -- -- 88
2019-03-30 06:00:00 0.7 6 Noroeste 8 Noroeste 0 -- -- 87
2019-03-30 05:00:00 1.1 6 Noroeste 10 Noroeste 0 -- -- 87
2019-03-30 04:00:00 1.4 7 Noroeste 10 Noroeste 0 -- -- 85
2019-03-30 03:00:00 2 6 Noroeste 8 Noroeste 0 -- -- 87
2019-03-30 02:00:00 1.7 6 Noroeste 10 Noroeste 0 -- -- 84
2019-03-30 01:00:00 1.2 8 Noroeste 11 Noroeste 0 -- -- 82
2019-03-30 00:00:00 1.1 7 Noroeste 11 Noroeste 0 -- -- 82
2019-03-29 23:00:00 2.5 8 Noroeste 9 Noroeste 0 -- -- 80
2019-03-29 22:00:00 3.1 6 Noroeste 9 Noroeste 0 -- -- 76
2019-03-29 21:00:00 3.9 6 Noroeste 7 Noroeste 0 -- -- 67
2019-03-29 20:00:00 5.9 0 Calma 10 Sudeste 0 -- -- 55
2019-03-29 19:00:00 9.6 8 Sur 19 Sudeste 0 -- -- 42
2019-03-29 18:00:00 11.9 10 Sudeste 21 Sudeste 0 -- -- 37
2019-03-29 17:00:00 13 12 Sudeste 22 Sudeste 0 -- -- 37
2019-03-29 16:00:00 14.2 14 Sur 27 Sudoeste 0 -- -- 36
2019-03-29 15:00:00 14.3 14 Sudeste 31 Sudeste 0 -- -- 35
2019-03-29 14:00:00 12.9 10 Sudeste 26 Sudeste 0 -- -- 37
2019-03-29 13:00:00 13.2 13 Sudeste 24 Este 0 -- -- 38
2019-03-29 12:00:00 13.9 11 Sur 24 Sudeste 0 -- -- 30
2019-03-29 11:00:00 13.4 11 Sur 19 Sudeste 0 -- -- 32
2019-03-29 10:00:00 12 9 Sudeste 15 Sudeste 0 -- -- 33
2019-03-29 09:00:00 10.7 11 Sudeste 15 Sudeste 0 -- -- 35
2019-03-29 08:00:00 5.9 3 Noroeste 7 Noroeste 0 -- -- 52
2019-03-29 07:00:00 3.2 3 Noroeste 9 Noroeste 0 -- -- 58
2019-03-29 06:00:00 4.8 7 Noroeste 10 Noroeste 0 -- -- 52
2019-03-29 05:00:00 4.7 9 Noroeste 11 Noroeste 0 -- -- 51
2019-03-29 04:00:00 3.8 8 Noroeste 9 Noroeste 0 -- -- 53
2019-03-29 03:00:00 4.4 6 Noroeste 12 Noroeste 0 -- -- 50
2019-03-29 02:00:00 4.2 9 Noroeste 15 Noroeste 0 -- -- 50
2019-03-29 01:00:00 2.5 12 Noroeste 15 Noroeste 0 -- -- 66
2019-03-29 00:00:00 2.5 8 Noroeste 10 Noroeste 0 -- -- 67
2019-03-28 23:00:00 2.3 8 Noroeste 10 Noroeste 0 -- -- 66
2019-03-28 22:00:00 2.9 7 Noroeste 9 Noroeste 0 -- -- 66
2019-03-28 21:00:00 4.6 4 Noroeste 8 Noroeste 0 -- -- 61
2019-03-28 20:00:00 7.2 2 Sur 12 Sur 0 -- -- 61
2019-03-28 19:00:00 10 5 Sur 22 Sudoeste 0 -- -- 39
2019-03-28 18:00:00 12.1 13 Sur 27 Sudoeste 0 -- -- 33
2019-03-28 17:00:00 13.2 15 Sur 31 Sudoeste 0 -- -- 30
2019-03-28 16:00:00 14.7 15 Sur 32 Sur 0 -- -- 26
2019-03-28 15:00:00 14.4 18 Sudoeste 32 Sudoeste 0 -- -- 28
2019-03-28 14:00:00 15.6 17 Sur 28 Sudoeste 0 -- -- 25
2019-03-28 13:00:00 14.8 8 Oeste 25 Oeste 0 -- -- 25
2019-03-28 12:00:00 14.2 8 Oeste 19 Sur 0 -- -- 25
2019-03-28 11:00:00 13.6 9 Sudeste 21 Este 0 -- -- 28
2019-03-28 10:00:00 12.1 8 Sudeste 18 Este 0 -- -- 29
2019-03-28 09:00:00 11.4 7 Sudeste 13 Sudeste 0 -- -- 30
2019-03-28 08:00:00 4.3 7 Noroeste 12 Noroeste 0 -- -- 52
2019-03-28 07:00:00 -0.1 9 Noroeste 13 Noroeste 0 -- -- 63
2019-03-28 06:00:00 0.4 10 Noroeste 12 Noroeste 0 -- -- 58
2019-03-28 05:00:00 1 9 Noroeste 13 Noroeste 0 -- -- 54
2019-03-28 04:00:00 1.8 10 Noroeste 13 Noroeste 0 -- -- 49
2019-03-28 03:00:00 2.1 9 Noroeste 13 Noroeste 0 -- -- 50
2019-03-28 02:00:00 2 11 Noroeste 13 Noroeste 0 -- -- 61
2019-03-28 01:00:00 2.4 9 Noroeste 12 Noroeste 0 -- -- 74
2019-03-28 00:00:00 3.3 8 Noroeste 10 Noroeste 0 -- -- 84
2019-03-27 23:00:00 2.9 8 Noroeste 10 Noroeste 0 -- -- 82
2019-03-27 22:00:00 3 7 Noroeste 9 Noroeste 0 -- -- 79
2019-03-27 21:00:00 4.4 5 Noroeste 9 Sur 0 -- -- 75
2019-03-27 20:00:00 6.6 3 Sur 13 Sur 0 -- -- 73
2019-03-27 19:00:00 9.6 8 Sur 19 Sur 0 -- -- 61
2019-03-27 18:00:00 12.5 10 Sur 28 Sur 0 -- -- 45
2019-03-27 17:00:00 14.1 15 Sur 26 Sudoeste 0 -- -- 34
2019-03-27 16:00:00 15.3 19 Sur 30 Sudeste 0 -- -- 29
2019-03-27 15:00:00 15.7 19 Sur 33 Sudoeste 0 -- -- 29
2019-03-27 14:00:00 17 10 Sur 23 Sudeste 0 -- -- 27
2019-03-27 13:00:00 16.1 6 Sudeste 17 Sur 0 -- -- 18
2019-03-27 12:00:00 14.5 7 Noroeste 23 Oeste 0 -- -- 21
2019-03-27 11:00:00 12.6 9 Sudoeste 19 Sur 0 -- -- 26
2019-03-27 10:00:00 11 11 Noroeste 20 Noroeste 0 -- -- 34
2019-03-27 09:00:00 11.3 4 Norte 9 Noroeste 0 -- -- 41
2019-03-27 08:00:00 3.9 5 Noroeste 11 Noroeste 0 -- -- 57
2019-03-27 07:00:00 0.1 8 Noroeste 12 Noroeste 0 -- -- 67
2019-03-27 06:00:00 -0.2 9 Noroeste 13 Noroeste 0 -- -- 67
2019-03-27 05:00:00 0 9 Noroeste 12 Noroeste 0 -- -- 64
2019-03-27 04:00:00 0.3 10 Noroeste 12 Noroeste 0 -- -- 67
2019-03-27 03:00:00 1.4 8 Noroeste 12 Noroeste 0 -- -- 69
2019-03-27 02:00:00 2.4 10 Noroeste 13 Noroeste 0 -- -- 71
2019-03-27 01:00:00 3.5 8 Noroeste 14 Noroeste 0 -- -- 70
2019-03-27 00:00:00 4.2 6 Noroeste 12 Noroeste 0 -- -- 71